sensor_id;sensor_type;location;lat;lon;timestamp;P1;durP1;ratioP1;P2;durP2;ratioP2
38037;SDS011;23843;51.320;12.340;2024-02-26T00:00:05;2.17;;;1.40;;
38037;SDS011;23843;51.320;12.340;2024-02-26T00:02:32;3.33;;;2.10;;
38037;SDS011;23843;51.320;12.340;2024-02-26T00:04:59;2.17;;;1.53;;
38037;SDS011;23843;51.320;12.340;2024-02-26T00:07:24;2.77;;;2.00;;
38037;SDS011;23843;51.320;12.340;2024-02-26T00:09:50;2.40;;;1.43;;
38037;SDS011;23843;51.320;12.340;2024-02-26T00:12:15;3.20;;;2.20;;
38037;SDS011;23843;51.320;12.340;2024-02-26T00:14:41;3.90;;;2.20;;
38037;SDS011;23843;51.320;12.340;2024-02-26T00:17:07;4.47;;;3.17;;
38037;SDS011;23843;51.320;12.340;2024-02-26T00:19:32;5.57;;;3.37;;
38037;SDS011;23843;51.320;12.340;2024-02-26T00:21:59;3.33;;;2.10;;
38037;SDS011;23843;51.320;12.340;2024-02-26T00:24:24;2.50;;;1.83;;
38037;SDS011;23843;51.320;12.340;2024-02-26T00:26:50;2.67;;;1.63;;
38037;SDS011;23843;51.320;12.340;2024-02-26T00:29:15;2.87;;;1.80;;
38037;SDS011;23843;51.320;12.340;2024-02-26T00:31:41;3.53;;;2.60;;
38037;SDS011;23843;51.320;12.340;2024-02-26T00:34:06;3.60;;;2.10;;
38037;SDS011;23843;51.320;12.340;2024-02-26T00:36:32;2.57;;;1.90;;
38037;SDS011;23843;51.320;12.340;2024-02-26T00:38:59;2.27;;;1.50;;
38037;SDS011;23843;51.320;12.340;2024-02-26T00:41:24;1.97;;;1.30;;
38037;SDS011;23843;51.320;12.340;2024-02-26T00:43:50;1.33;;;0.90;;
38037;SDS011;23843;51.320;12.340;2024-02-26T00:46:15;1.60;;;1.00;;
38037;SDS011;23843;51.320;12.340;2024-02-26T00:48:41;0.93;;;0.80;;
38037;SDS011;23843;51.320;12.340;2024-02-26T00:51:06;1.87;;;0.90;;
38037;SDS011;23843;51.320;12.340;2024-02-26T00:53:32;0.87;;;0.70;;
38037;SDS011;23843;51.320;12.340;2024-02-26T00:55:58;1.07;;;0.90;;
38037;SDS011;23843;51.320;12.340;2024-02-26T00:58:24;2.10;;;1.20;;
38037;SDS011;23843;51.320;12.340;2024-02-26T01:00:49;2.33;;;1.40;;
38037;SDS011;23843;51.320;12.340;2024-02-26T01:03:15;4.57;;;3.07;;
38037;SDS011;23843;51.320;12.340;2024-02-26T01:05:40;3.30;;;2.10;;
38037;SDS011;23843;51.320;12.340;2024-02-26T01:08:06;3.60;;;1.57;;
38037;SDS011;23843;51.320;12.340;2024-02-26T01:10:32;1.90;;;1.30;;
38037;SDS011;23843;51.320;12.340;2024-02-26T01:12:58;1.30;;;1.10;;
38037;SDS011;23843;51.320;12.340;2024-02-26T01:15:24;1.60;;;1.20;;
38037;SDS011;23843;51.320;12.340;2024-02-26T01:17:49;1.20;;;1.07;;
38037;SDS011;23843;51.320;12.340;2024-02-26T01:20:15;1.60;;;1.17;;
38037;SDS011;23843;51.320;12.340;2024-02-26T01:22:41;1.70;;;1.30;;
38037;SDS011;23843;51.320;12.340;2024-02-26T01:25:07;1.90;;;1.30;;
38037;SDS011;23843;51.320;12.340;2024-02-26T01:27:33;2.20;;;1.40;;
38037;SDS011;23843;51.320;12.340;2024-02-26T01:30:00;1.70;;;1.20;;
38037;SDS011;23843;51.320;12.340;2024-02-26T01:32:26;2.03;;;1.50;;
38037;SDS011;23843;51.320;12.340;2024-02-26T01:34:51;2.67;;;1.80;;
38037;SDS011;23843;51.320;12.340;2024-02-26T01:37:17;2.80;;;1.60;;
38037;SDS011;23843;51.320;12.340;2024-02-26T01:39:42;2.97;;;1.93;;
38037;SDS011;23843;51.320;12.340;2024-02-26T01:42:08;2.93;;;2.13;;
38037;SDS011;23843;51.320;12.340;2024-02-26T01:44:33;3.27;;;1.90;;
38037;SDS011;23843;51.320;12.340;2024-02-26T01:47:00;2.90;;;2.07;;
38037;SDS011;23843;51.320;12.340;2024-02-26T01:49:26;3.87;;;2.50;;
38037;SDS011;23843;51.320;12.340;2024-02-26T01:51:51;3.17;;;1.93;;
38037;SDS011;23843;51.320;12.340;2024-02-26T01:54:17;3.67;;;2.20;;
38037;SDS011;23843;51.320;12.340;2024-02-26T01:56:43;3.90;;;2.53;;
38037;SDS011;23843;51.320;12.340;2024-02-26T01:59:08;3.20;;;2.00;;
38037;SDS011;23843;51.320;12.340;2024-02-26T02:01:34;1.90;;;1.50;;
38037;SDS011;23843;51.320;12.340;2024-02-26T02:04:01;2.00;;;1.53;;
38037;SDS011;23843;51.320;12.340;2024-02-26T02:06:27;2.87;;;1.70;;
38037;SDS011;23843;51.320;12.340;2024-02-26T02:08:53;2.33;;;1.43;;
38037;SDS011;23843;51.320;12.340;2024-02-26T02:11:20;1.73;;;1.10;;
38037;SDS011;23843;51.320;12.340;2024-02-26T02:13:46;1.97;;;1.40;;
38037;SDS011;23843;51.320;12.340;2024-02-26T02:16:12;1.87;;;1.30;;
38037;SDS011;23843;51.320;12.340;2024-02-26T02:18:37;2.87;;;1.87;;
38037;SDS011;23843;51.320;12.340;2024-02-26T02:21:04;3.30;;;1.73;;
38037;SDS011;23843;51.320;12.340;2024-02-26T02:23:30;2.40;;;1.80;;
38037;SDS011;23843;51.320;12.340;2024-02-26T02:25:55;2.07;;;1.57;;
38037;SDS011;23843;51.320;12.340;2024-02-26T02:28:22;2.40;;;1.20;;
38037;SDS011;23843;51.320;12.340;2024-02-26T02:30:50;2.63;;;2.00;;
38037;SDS011;23843;51.320;12.340;2024-02-26T02:33:16;3.00;;;1.63;;
38037;SDS011;23843;51.320;12.340;2024-02-26T02:35:41;2.13;;;1.43;;
38037;SDS011;23843;51.320;12.340;2024-02-26T02:38:08;2.07;;;1.47;;
38037;SDS011;23843;51.320;12.340;2024-02-26T02:40:34;1.70;;;1.20;;
38037;SDS011;23843;51.320;12.340;2024-02-26T02:43:00;1.50;;;1.20;;
38037;SDS011;23843;51.320;12.340;2024-02-26T02:45:25;1.53;;;1.07;;
38037;SDS011;23843;51.320;12.340;2024-02-26T02:47:51;1.20;;;0.77;;
38037;SDS011;23843;51.320;12.340;2024-02-26T02:50:17;1.17;;;0.80;;
38037;SDS011;23843;51.320;12.340;2024-02-26T02:52:42;0.87;;;0.70;;
38037;SDS011;23843;51.320;12.340;2024-02-26T02:55:09;0.90;;;0.57;;
38037;SDS011;23843;51.320;12.340;2024-02-26T02:57:34;0.80;;;0.70;;
38037;SDS011;23843;51.320;12.340;2024-02-26T03:00:00;0.57;;;0.50;;
38037;SDS011;23843;51.320;12.340;2024-02-26T03:02:25;0.80;;;0.60;;
38037;SDS011;23843;51.320;12.340;2024-02-26T03:04:51;0.60;;;0.60;;
38037;SDS011;23843;51.320;12.340;2024-02-26T03:07:16;1.00;;;0.70;;
38037;SDS011;23843;51.320;12.340;2024-02-26T03:09:42;0.80;;;0.70;;
38037;SDS011;23843;51.320;12.340;2024-02-26T03:12:09;0.80;;;0.80;;
38037;SDS011;23843;51.320;12.340;2024-02-26T03:14:34;1.47;;;0.90;;
38037;SDS011;23843;51.320;12.340;2024-02-26T03:17:00;0.83;;;0.70;;
38037;SDS011;23843;51.320;12.340;2024-02-26T03:19:25;1.00;;;0.80;;
38037;SDS011;23843;51.320;12.340;2024-02-26T03:21:51;1.53;;;0.90;;
38037;SDS011;23843;51.320;12.340;2024-02-26T03:24:16;0.80;;;0.60;;
38037;SDS011;23843;51.320;12.340;2024-02-26T03:26:42;1.33;;;0.90;;
38037;SDS011;23843;51.320;12.340;2024-02-26T03:29:09;2.00;;;1.37;;
38037;SDS011;23843;51.320;12.340;2024-02-26T03:31:34;2.00;;;1.27;;
38037;SDS011;23843;51.320;12.340;2024-02-26T03:34:00;2.80;;;1.47;;
38037;SDS011;23843;51.320;12.340;2024-02-26T03:36:25;1.93;;;1.00;;
38037;SDS011;23843;51.320;12.340;2024-02-26T03:38:50;1.93;;;1.30;;
38037;SDS011;23843;51.320;12.340;2024-02-26T03:41:16;0.90;;;0.80;;
38037;SDS011;23843;51.320;12.340;2024-02-26T03:43:42;1.57;;;1.17;;
38037;SDS011;23843;51.320;12.340;2024-02-26T03:46:09;2.50;;;1.43;;
38037;SDS011;23843;51.320;12.340;2024-02-26T03:48:34;2.93;;;1.93;;
38037;SDS011;23843;51.320;12.340;2024-02-26T03:51:00;2.40;;;1.43;;
38037;SDS011;23843;51.320;12.340;2024-02-26T03:53:25;2.03;;;1.40;;
38037;SDS011;23843;51.320;12.340;2024-02-26T03:55:51;2.53;;;1.40;;
38037;SDS011;23843;51.320;12.340;2024-02-26T03:58:16;1.90;;;1.30;;
38037;SDS011;23843;51.320;12.340;2024-02-26T04:00:42;2.20;;;1.60;;
38037;SDS011;23843;51.320;12.340;2024-02-26T04:03:09;1.50;;;1.20;;
38037;SDS011;23843;51.320;12.340;2024-02-26T04:05:35;1.37;;;1.00;;
38037;SDS011;23843;51.320;12.340;2024-02-26T04:08:00;1.93;;;1.47;;
38037;SDS011;23843;51.320;12.340;2024-02-26T04:10:26;1.97;;;1.30;;
38037;SDS011;23843;51.320;12.340;2024-02-26T04:12:51;2.87;;;1.70;;
38037;SDS011;23843;51.320;12.340;2024-02-26T04:15:17;3.00;;;1.67;;
38037;SDS011;23843;51.320;12.340;2024-02-26T04:17:42;3.63;;;2.10;;
38037;SDS011;23843;51.320;12.340;2024-02-26T04:20:12;3.30;;;2.13;;
38037;SDS011;23843;51.320;12.340;2024-02-26T04:22:39;3.40;;;1.90;;
38037;SDS011;23843;51.320;12.340;2024-02-26T04:25:05;3.73;;;1.93;;
38037;SDS011;23843;51.320;12.340;2024-02-26T04:27:30;3.90;;;2.43;;
38037;SDS011;23843;51.320;12.340;2024-02-26T04:29:56;2.83;;;1.90;;
38037;SDS011;23843;51.320;12.340;2024-02-26T04:32:21;3.07;;;2.10;;
38037;SDS011;23843;51.320;12.340;2024-02-26T04:34:47;4.53;;;2.07;;
38037;SDS011;23843;51.320;12.340;2024-02-26T04:37:14;4.20;;;2.57;;
38037;SDS011;23843;51.320;12.340;2024-02-26T04:39:39;4.13;;;3.03;;
38037;SDS011;23843;51.320;12.340;2024-02-26T04:42:05;4.03;;;2.30;;
38037;SDS011;23843;51.320;12.340;2024-02-26T04:44:30;4.70;;;3.17;;
38037;SDS011;23843;51.320;12.340;2024-02-26T04:46:56;4.47;;;2.90;;
38037;SDS011;23843;51.320;12.340;2024-02-26T04:49:21;8.93;;;5.23;;
38037;SDS011;23843;51.320;12.340;2024-02-26T04:51:47;6.80;;;4.30;;
38037;SDS011;23843;51.320;12.340;2024-02-26T04:54:14;4.13;;;2.67;;
38037;SDS011;23843;51.320;12.340;2024-02-26T04:56:39;5.30;;;3.30;;
38037;SDS011;23843;51.320;12.340;2024-02-26T04:59:04;5.33;;;2.77;;
38037;SDS011;23843;51.320;12.340;2024-02-26T05:01:30;5.00;;;3.43;;
38037;SDS011;23843;51.320;12.340;2024-02-26T05:03:55;5.87;;;3.80;;
38037;SDS011;23843;51.320;12.340;2024-02-26T05:06:21;5.00;;;2.90;;
38037;SDS011;23843;51.320;12.340;2024-02-26T05:08:46;4.80;;;3.23;;
38037;SDS011;23843;51.320;12.340;2024-02-26T05:11:13;7.03;;;4.30;;
38037;SDS011;23843;51.320;12.340;2024-02-26T05:13:39;5.53;;;3.40;;
38037;SDS011;23843;51.320;12.340;2024-02-26T05:16:04;4.47;;;2.70;;
38037;SDS011;23843;51.320;12.340;2024-02-26T05:18:30;4.07;;;2.90;;
38037;SDS011;23843;51.320;12.340;2024-02-26T05:20:55;5.37;;;3.20;;
38037;SDS011;23843;51.320;12.340;2024-02-26T05:23:21;4.63;;;2.70;;
38037;SDS011;23843;51.320;12.340;2024-02-26T05:25:46;3.83;;;2.43;;
38037;SDS011;23843;51.320;12.340;2024-02-26T05:28:14;5.20;;;2.90;;
38037;SDS011;23843;51.320;12.340;2024-02-26T05:30:40;4.97;;;2.83;;
38037;SDS011;23843;51.320;12.340;2024-02-26T05:33:05;3.30;;;2.10;;
38037;SDS011;23843;51.320;12.340;2024-02-26T05:35:31;3.93;;;2.70;;
38037;SDS011;23843;51.320;12.340;2024-02-26T05:37:57;3.13;;;1.90;;
38037;SDS011;23843;51.320;12.340;2024-02-26T05:40:22;3.17;;;2.10;;
38037;SDS011;23843;51.320;12.340;2024-02-26T05:42:48;6.67;;;4.03;;
38037;SDS011;23843;51.320;12.340;2024-02-26T05:45:15;3.73;;;2.50;;
38037;SDS011;23843;51.320;12.340;2024-02-26T05:47:40;4.07;;;2.60;;
38037;SDS011;23843;51.320;12.340;2024-02-26T05:50:06;4.57;;;2.90;;
38037;SDS011;23843;51.320;12.340;2024-02-26T05:52:32;5.97;;;3.83;;
38037;SDS011;23843;51.320;12.340;2024-02-26T05:54:58;8.33;;;4.57;;
38037;SDS011;23843;51.320;12.340;2024-02-26T05:57:23;7.30;;;4.33;;
38037;SDS011;23843;51.320;12.340;2024-02-26T05:59:49;5.63;;;3.37;;
38037;SDS011;23843;51.320;12.340;2024-02-26T06:02:16;5.17;;;3.03;;
38037;SDS011;23843;51.320;12.340;2024-02-26T06:04:41;4.50;;;3.00;;
38037;SDS011;23843;51.320;12.340;2024-02-26T06:07:06;5.40;;;3.27;;
38037;SDS011;23843;51.320;12.340;2024-02-26T06:09:32;5.13;;;3.07;;
38037;SDS011;23843;51.320;12.340;2024-02-26T06:11:57;4.43;;;2.67;;
38037;SDS011;23843;51.320;12.340;2024-02-26T06:14:23;5.43;;;3.40;;
38037;SDS011;23843;51.320;12.340;2024-02-26T06:16:48;4.97;;;3.10;;
38037;SDS011;23843;51.320;12.340;2024-02-26T06:19:15;4.40;;;2.73;;
38037;SDS011;23843;51.320;12.340;2024-02-26T06:21:41;6.07;;;3.30;;
38037;SDS011;23843;51.320;12.340;2024-02-26T06:24:06;4.93;;;3.20;;
38037;SDS011;23843;51.320;12.340;2024-02-26T06:26:32;4.43;;;3.20;;
38037;SDS011;23843;51.320;12.340;2024-02-26T06:28:57;7.30;;;4.53;;
38037;SDS011;23843;51.320;12.340;2024-02-26T06:31:23;6.80;;;4.33;;
38037;SDS011;23843;51.320;12.340;2024-02-26T06:33:48;6.73;;;4.47;;
38037;SDS011;23843;51.320;12.340;2024-02-26T06:36:15;6.23;;;4.00;;
38037;SDS011;23843;51.320;12.340;2024-02-26T06:38:41;5.90;;;3.83;;
38037;SDS011;23843;51.320;12.340;2024-02-26T06:41:06;4.33;;;2.77;;
38037;SDS011;23843;51.320;12.340;2024-02-26T06:43:32;3.93;;;2.67;;
38037;SDS011;23843;51.320;12.340;2024-02-26T06:45:58;4.03;;;2.63;;
38037;SDS011;23843;51.320;12.340;2024-02-26T06:48:23;3.67;;;2.50;;
38037;SDS011;23843;51.320;12.340;2024-02-26T06:50:49;3.60;;;2.30;;
38037;SDS011;23843;51.320;12.340;2024-02-26T06:53:15;3.90;;;2.33;;
38037;SDS011;23843;51.320;12.340;2024-02-26T06:55:41;2.60;;;1.57;;
38037;SDS011;23843;51.320;12.340;2024-02-26T06:58:06;3.90;;;2.40;;
38037;SDS011;23843;51.320;12.340;2024-02-26T07:00:32;3.70;;;2.30;;
38037;SDS011;23843;51.320;12.340;2024-02-26T07:02:58;3.57;;;2.37;;
38037;SDS011;23843;51.320;12.340;2024-02-26T07:05:23;4.33;;;2.60;;
38037;SDS011;23843;51.320;12.340;2024-02-26T07:07:49;2.93;;;1.80;;
38037;SDS011;23843;51.320;12.340;2024-02-26T07:10:17;4.17;;;2.37;;
38037;SDS011;23843;51.320;12.340;2024-02-26T07:12:42;3.10;;;1.97;;
38037;SDS011;23843;51.320;12.340;2024-02-26T07:15:08;4.90;;;3.17;;
38037;SDS011;23843;51.320;12.340;2024-02-26T07:17:34;3.77;;;2.50;;
38037;SDS011;23843;51.320;12.340;2024-02-26T07:20:00;3.63;;;2.40;;
38037;SDS011;23843;51.320;12.340;2024-02-26T07:22:26;3.03;;;2.00;;
38037;SDS011;23843;51.320;12.340;2024-02-26T07:24:51;3.63;;;2.30;;
38037;SDS011;23843;51.320;12.340;2024-02-26T07:27:19;3.50;;;2.40;;
38037;SDS011;23843;51.320;12.340;2024-02-26T07:29:44;2.73;;;1.97;;
38037;SDS011;23843;51.320;12.340;2024-02-26T07:32:10;4.27;;;3.03;;
38037;SDS011;23843;51.320;12.340;2024-02-26T07:34:35;4.70;;;3.30;;
38037;SDS011;23843;51.320;12.340;2024-02-26T07:37:01;4.50;;;2.90;;
38037;SDS011;23843;51.320;12.340;2024-02-26T07:39:26;3.90;;;2.73;;
38037;SDS011;23843;51.320;12.340;2024-02-26T07:41:52;5.87;;;3.87;;
38037;SDS011;23843;51.320;12.340;2024-02-26T07:44:18;7.50;;;4.90;;
38037;SDS011;23843;51.320;12.340;2024-02-26T07:46:44;5.23;;;3.60;;
38037;SDS011;23843;51.320;12.340;2024-02-26T07:49:10;4.80;;;3.07;;
38037;SDS011;23843;51.320;12.340;2024-02-26T07:51:35;6.07;;;3.50;;
38037;SDS011;23843;51.320;12.340;2024-02-26T07:54:01;4.77;;;2.87;;
38037;SDS011;23843;51.320;12.340;2024-02-26T07:56:27;5.60;;;3.53;;
38037;SDS011;23843;51.320;12.340;2024-02-26T07:58:52;7.17;;;4.63;;
38037;SDS011;23843;51.320;12.340;2024-02-26T08:01:19;6.20;;;3.53;;
38037;SDS011;23843;51.320;12.340;2024-02-26T08:03:45;6.67;;;4.33;;
38037;SDS011;23843;51.320;12.340;2024-02-26T08:06:11;6.20;;;4.23;;
38037;SDS011;23843;51.320;12.340;2024-02-26T08:08:36;7.90;;;5.17;;
38037;SDS011;23843;51.320;12.340;2024-02-26T08:11:02;5.90;;;3.93;;
38037;SDS011;23843;51.320;12.340;2024-02-26T08:13:27;5.83;;;4.20;;
38037;SDS011;23843;51.320;12.340;2024-02-26T08:15:53;7.87;;;4.60;;
38037;SDS011;23843;51.320;12.340;2024-02-26T08:18:20;6.40;;;4.67;;
38037;SDS011;23843;51.320;12.340;2024-02-26T08:20:45;4.80;;;3.40;;
38037;SDS011;23843;51.320;12.340;2024-02-26T08:23:11;4.40;;;2.87;;
38037;SDS011;23843;51.320;12.340;2024-02-26T08:25:36;4.73;;;3.13;;
38037;SDS011;23843;51.320;12.340;2024-02-26T08:28:02;4.50;;;3.10;;
38037;SDS011;23843;51.320;12.340;2024-02-26T08:30:27;3.23;;;2.27;;
38037;SDS011;23843;51.320;12.340;2024-02-26T08:32:53;4.13;;;2.73;;
38037;SDS011;23843;51.320;12.340;2024-02-26T08:35:20;4.17;;;2.60;;
38037;SDS011;23843;51.320;12.340;2024-02-26T08:37:45;5.33;;;3.23;;
38037;SDS011;23843;51.320;12.340;2024-02-26T08:40:11;4.70;;;3.53;;
38037;SDS011;23843;51.320;12.340;2024-02-26T08:42:37;3.37;;;2.30;;
38037;SDS011;23843;51.320;12.340;2024-02-26T08:45:02;3.73;;;2.67;;
38037;SDS011;23843;51.320;12.340;2024-02-26T08:47:28;4.03;;;3.10;;
38037;SDS011;23843;51.320;12.340;2024-02-26T08:49:54;3.83;;;2.73;;
38037;SDS011;23843;51.320;12.340;2024-02-26T08:52:21;4.83;;;3.27;;
38037;SDS011;23843;51.320;12.340;2024-02-26T08:54:46;3.10;;;2.50;;
38037;SDS011;23843;51.320;12.340;2024-02-26T08:57:12;3.33;;;2.40;;
38037;SDS011;23843;51.320;12.340;2024-02-26T08:59:37;4.13;;;2.70;;
38037;SDS011;23843;51.320;12.340;2024-02-26T09:02:03;2.87;;;2.23;;
38037;SDS011;23843;51.320;12.340;2024-02-26T09:04:28;1.77;;;1.40;;
38037;SDS011;23843;51.320;12.340;2024-02-26T09:06:54;3.40;;;2.27;;
38037;SDS011;23843;51.320;12.340;2024-02-26T09:09:21;3.83;;;2.73;;
38037;SDS011;23843;51.320;12.340;2024-02-26T09:11:47;3.07;;;2.10;;
38037;SDS011;23843;51.320;12.340;2024-02-26T09:14:12;4.17;;;2.97;;
38037;SDS011;23843;51.320;12.340;2024-02-26T09:16:37;3.23;;;2.10;;
38037;SDS011;23843;51.320;12.340;2024-02-26T09:19:03;3.97;;;1.90;;
38037;SDS011;23843;51.320;12.340;2024-02-26T09:21:29;3.47;;;2.23;;
38037;SDS011;23843;51.320;12.340;2024-02-26T09:23:54;1.83;;;1.57;;
38037;SDS011;23843;51.320;12.340;2024-02-26T09:26:21;3.30;;;2.43;;
38037;SDS011;23843;51.320;12.340;2024-02-26T09:28:47;5.33;;;3.47;;
38037;SDS011;23843;51.320;12.340;2024-02-26T09:31:13;2.23;;;2.03;;
38037;SDS011;23843;51.320;12.340;2024-02-26T09:33:38;2.70;;;2.00;;
38037;SDS011;23843;51.320;12.340;2024-02-26T09:36:04;3.23;;;1.77;;
38037;SDS011;23843;51.320;12.340;2024-02-26T09:38:29;4.53;;;2.97;;
38037;SDS011;23843;51.320;12.340;2024-02-26T09:40:55;2.97;;;2.00;;
38037;SDS011;23843;51.320;12.340;2024-02-26T09:43:23;3.23;;;2.57;;
38037;SDS011;23843;51.320;12.340;2024-02-26T09:45:49;3.33;;;2.33;;
38037;SDS011;23843;51.320;12.340;2024-02-26T09:48:15;3.00;;;2.10;;
38037;SDS011;23843;51.320;12.340;2024-02-26T09:50:42;3.73;;;2.40;;
38037;SDS011;23843;51.320;12.340;2024-02-26T09:53:08;3.27;;;2.47;;
38037;SDS011;23843;51.320;12.340;2024-02-26T09:55:36;3.40;;;2.07;;
38037;SDS011;23843;51.320;12.340;2024-02-26T09:58:01;2.53;;;1.73;;
38037;SDS011;23843;51.320;12.340;2024-02-26T10:00:32;2.03;;;1.20;;
38037;SDS011;23843;51.320;12.340;2024-02-26T10:03:02;2.80;;;1.70;;
38037;SDS011;23843;51.320;12.340;2024-02-26T10:05:29;3.13;;;2.03;;
38037;SDS011;23843;51.320;12.340;2024-02-26T10:07:56;3.60;;;1.60;;
38037;SDS011;23843;51.320;12.340;2024-02-26T10:10:23;1.80;;;1.40;;
38037;SDS011;23843;51.320;12.340;2024-02-26T10:12:48;1.70;;;1.27;;
38037;SDS011;23843;51.320;12.340;2024-02-26T10:15:15;1.63;;;1.43;;
38037;SDS011;23843;51.320;12.340;2024-02-26T10:17:42;1.80;;;1.30;;
38037;SDS011;23843;51.320;12.340;2024-02-26T10:20:14;3.80;;;2.33;;
38037;SDS011;23843;51.320;12.340;2024-02-26T10:22:40;3.40;;;1.60;;
38037;SDS011;23843;51.320;12.340;2024-02-26T10:25:06;3.57;;;2.20;;
38037;SDS011;23843;51.320;12.340;2024-02-26T10:27:32;4.83;;;2.50;;
38037;SDS011;23843;51.320;12.340;2024-02-26T10:29:57;2.93;;;1.90;;
38037;SDS011;23843;51.320;12.340;2024-02-26T10:32:23;2.40;;;1.80;;
38037;SDS011;23843;51.320;12.340;2024-02-26T10:34:50;2.73;;;1.90;;
38037;SDS011;23843;51.320;12.340;2024-02-26T10:37:20;2.37;;;1.70;;
38037;SDS011;23843;51.320;12.340;2024-02-26T10:39:47;2.47;;;1.30;;
38037;SDS011;23843;51.320;12.340;2024-02-26T10:42:12;1.90;;;1.40;;
38037;SDS011;23843;51.320;12.340;2024-02-26T10:44:39;3.33;;;2.00;;
38037;SDS011;23843;51.320;12.340;2024-02-26T10:47:05;2.10;;;1.50;;
38037;SDS011;23843;51.320;12.340;2024-02-26T10:49:32;3.73;;;1.90;;
38037;SDS011;23843;51.320;12.340;2024-02-26T10:52:01;2.03;;;1.20;;
38037;SDS011;23843;51.320;12.340;2024-02-26T10:54:29;1.47;;;0.90;;
38037;SDS011;23843;51.320;12.340;2024-02-26T10:56:57;0.77;;;0.70;;
38037;SDS011;23843;51.320;12.340;2024-02-26T10:59:24;0.87;;;0.63;;
38037;SDS011;23843;51.320;12.340;2024-02-26T11:01:50;2.80;;;1.30;;
38037;SDS011;23843;51.320;12.340;2024-02-26T11:04:16;2.60;;;1.40;;
38037;SDS011;23843;51.320;12.340;2024-02-26T11:06:42;2.90;;;1.90;;
38037;SDS011;23843;51.320;12.340;2024-02-26T11:09:09;2.47;;;1.80;;
38037;SDS011;23843;51.320;12.340;2024-02-26T11:11:37;4.10;;;1.83;;
38037;SDS011;23843;51.320;12.340;2024-02-26T11:14:03;2.40;;;1.60;;
38037;SDS011;23843;51.320;12.340;2024-02-26T11:16:28;1.30;;;0.90;;
38037;SDS011;23843;51.320;12.340;2024-02-26T11:18:54;2.87;;;1.30;;
38037;SDS011;23843;51.320;12.340;2024-02-26T11:21:22;3.17;;;0.97;;
38037;SDS011;23843;51.320;12.340;2024-02-26T11:23:48;1.67;;;1.20;;
38037;SDS011;23843;51.320;12.340;2024-02-26T11:26:15;1.37;;;1.10;;
38037;SDS011;23843;51.320;12.340;2024-02-26T11:28:42;2.90;;;1.07;;
38037;SDS011;23843;51.320;12.340;2024-02-26T11:31:09;1.33;;;1.20;;
38037;SDS011;23843;51.320;12.340;2024-02-26T11:33:36;1.77;;;1.10;;
38037;SDS011;23843;51.320;12.340;2024-02-26T11:36:01;1.70;;;1.13;;
38037;SDS011;23843;51.320;12.340;2024-02-26T11:38:27;1.50;;;0.90;;
38037;SDS011;23843;51.320;12.340;2024-02-26T11:41:12;1.70;;;1.10;;
38037;SDS011;23843;51.320;12.340;2024-02-26T11:43:52;2.60;;;1.30;;
38037;SDS011;23843;51.320;12.340;2024-02-26T11:46:24;2.50;;;1.40;;
38037;SDS011;23843;51.320;12.340;2024-02-26T11:48:50;2.07;;;1.53;;
38037;SDS011;23843;51.320;12.340;2024-02-26T11:51:16;2.80;;;1.60;;
38037;SDS011;23843;51.320;12.340;2024-02-26T11:53:45;2.80;;;2.17;;
38037;SDS011;23843;51.320;12.340;2024-02-26T11:56:21;2.43;;;1.70;;
38037;SDS011;23843;51.320;12.340;2024-02-26T11:58:47;2.80;;;1.90;;
38037;SDS011;23843;51.320;12.340;2024-02-26T12:04:02;2.33;;;1.60;;
38037;SDS011;23843;51.320;12.340;2024-02-26T12:06:30;2.80;;;1.83;;
38037;SDS011;23843;51.320;12.340;2024-02-26T12:08:56;3.77;;;2.17;;
38037;SDS011;23843;51.320;12.340;2024-02-26T12:11:21;2.87;;;1.90;;
38037;SDS011;23843;51.320;12.340;2024-02-26T12:13:47;2.87;;;1.80;;
38037;SDS011;23843;51.320;12.340;2024-02-26T12:16:13;3.67;;;2.50;;
38037;SDS011;23843;51.320;12.340;2024-02-26T12:19:04;3.07;;;2.03;;
38037;SDS011;23843;51.320;12.340;2024-02-26T12:21:30;3.50;;;2.20;;
38037;SDS011;23843;51.320;12.340;2024-02-26T12:23:55;1.93;;;1.40;;
38037;SDS011;23843;51.320;12.340;2024-02-26T12:26:21;2.67;;;1.90;;
38037;SDS011;23843;51.320;12.340;2024-02-26T12:28:47;3.63;;;2.20;;
38037;SDS011;23843;51.320;12.340;2024-02-26T12:31:12;2.60;;;1.70;;
38037;SDS011;23843;51.320;12.340;2024-02-26T12:33:39;2.73;;;1.80;;
38037;SDS011;23843;51.320;12.340;2024-02-26T12:36:05;2.73;;;2.10;;
38037;SDS011;23843;51.320;12.340;2024-02-26T12:38:31;3.00;;;2.07;;
38037;SDS011;23843;51.320;12.340;2024-02-26T12:40:56;2.63;;;2.07;;
38037;SDS011;23843;51.320;12.340;2024-02-26T12:43:22;2.60;;;1.60;;
38037;SDS011;23843;51.320;12.340;2024-02-26T12:45:47;4.10;;;2.70;;
38037;SDS011;23843;51.320;12.340;2024-02-26T12:48:13;5.27;;;3.57;;
38037;SDS011;23843;51.320;12.340;2024-02-26T12:50:40;3.10;;;2.30;;
38037;SDS011;23843;51.320;12.340;2024-02-26T12:53:09;3.53;;;2.50;;
38037;SDS011;23843;51.320;12.340;2024-02-26T12:55:36;4.57;;;2.80;;
38037;SDS011;23843;51.320;12.340;2024-02-26T12:58:02;3.53;;;2.37;;
38037;SDS011;23843;51.320;12.340;2024-02-26T13:00:27;1.70;;;1.47;;
38037;SDS011;23843;51.320;12.340;2024-02-26T13:02:53;3.73;;;2.00;;
38037;SDS011;23843;51.320;12.340;2024-02-26T13:05:20;4.60;;;2.63;;
38037;SDS011;23843;51.320;12.340;2024-02-26T13:07:48;3.43;;;2.00;;
38037;SDS011;23843;51.320;12.340;2024-02-26T13:10:14;2.53;;;1.50;;
38037;SDS011;23843;51.320;12.340;2024-02-26T13:12:42;2.37;;;1.70;;
38037;SDS011;23843;51.320;12.340;2024-02-26T13:15:09;2.00;;;1.30;;
38037;SDS011;23843;51.320;12.340;2024-02-26T13:17:40;4.37;;;2.27;;
38037;SDS011;23843;51.320;12.340;2024-02-26T13:20:06;3.13;;;2.17;;
38037;SDS011;23843;51.320;12.340;2024-02-26T13:22:33;2.53;;;1.80;;
38037;SDS011;23843;51.320;12.340;2024-02-26T13:25:00;2.60;;;1.70;;
38037;SDS011;23843;51.320;12.340;2024-02-26T13:27:25;1.77;;;1.30;;
38037;SDS011;23843;51.320;12.340;2024-02-26T13:30:01;1.87;;;1.47;;
38037;SDS011;23843;51.320;12.340;2024-02-26T13:32:28;2.40;;;1.97;;
38037;SDS011;23843;51.320;12.340;2024-02-26T13:34:53;2.87;;;1.90;;
38037;SDS011;23843;51.320;12.340;2024-02-26T13:37:29;2.80;;;2.13;;
38037;SDS011;23843;51.320;12.340;2024-02-26T13:39:55;2.43;;;1.70;;
38037;SDS011;23843;51.320;12.340;2024-02-26T13:42:21;2.27;;;1.53;;
38037;SDS011;23843;51.320;12.340;2024-02-26T13:44:47;1.67;;;1.23;;
38037;SDS011;23843;51.320;12.340;2024-02-26T13:47:12;1.53;;;1.10;;
38037;SDS011;23843;51.320;12.340;2024-02-26T13:49:38;1.80;;;1.10;;
38037;SDS011;23843;51.320;12.340;2024-02-26T13:52:03;0.93;;;0.87;;
38037;SDS011;23843;51.320;12.340;2024-02-26T13:54:29;1.33;;;1.10;;
38037;SDS011;23843;51.320;12.340;2024-02-26T13:56:55;1.73;;;1.10;;
38037;SDS011;23843;51.320;12.340;2024-02-26T13:59:22;1.70;;;1.30;;
38037;SDS011;23843;51.320;12.340;2024-02-26T14:01:47;2.33;;;1.53;;
38037;SDS011;23843;51.320;12.340;2024-02-26T14:04:13;3.10;;;1.90;;
38037;SDS011;23843;51.320;12.340;2024-02-26T14:06:38;2.80;;;2.20;;
38037;SDS011;23843;51.320;12.340;2024-02-26T14:09:04;3.03;;;1.83;;
38037;SDS011;23843;51.320;12.340;2024-02-26T14:11:29;3.23;;;1.90;;
38037;SDS011;23843;51.320;12.340;2024-02-26T14:13:55;2.00;;;1.57;;
38037;SDS011;23843;51.320;12.340;2024-02-26T14:16:22;3.77;;;2.30;;
38037;SDS011;23843;51.320;12.340;2024-02-26T14:18:47;2.87;;;1.90;;
38037;SDS011;23843;51.320;12.340;2024-02-26T14:21:13;3.40;;;2.10;;
38037;SDS011;23843;51.320;12.340;2024-02-26T14:23:38;4.63;;;2.97;;
38037;SDS011;23843;51.320;12.340;2024-02-26T14:26:04;3.90;;;2.47;;
38037;SDS011;23843;51.320;12.340;2024-02-26T14:28:29;3.63;;;2.00;;